createdAt,value
2022-12-11T00:01:14.820Z,97201.38
2022-12-11T00:03:43.244Z,97191.25
2022-12-11T00:06:15.127Z,97185.19
2022-12-11T00:08:43.899Z,97184.50
2022-12-11T00:11:13.581Z,97179.25
2022-12-11T00:13:41.948Z,97169.00
2022-12-11T00:16:10.775Z,97160.78
2022-12-11T00:18:39.070Z,97170.25
2022-12-11T00:21:09.271Z,97168.47
2022-12-11T00:23:38.534Z,97187.31
2022-12-11T00:26:08.424Z,97185.69
2022-12-11T00:28:36.819Z,97182.28
2022-12-11T00:31:06.371Z,97175.91
2022-12-11T00:33:34.505Z,97177.16
2022-12-11T00:36:02.738Z,97172.56
2022-12-11T00:38:31.003Z,97173.81
2022-12-11T00:40:59.644Z,97183.38
2022-12-11T00:43:27.637Z,97178.12
2022-12-11T00:45:56.083Z,97176.59
2022-12-11T00:48:24.162Z,97191.94
2022-12-11T00:50:55.079Z,97186.84
2022-12-11T00:53:23.458Z,97201.31
2022-12-11T00:55:51.569Z,97203.09
2022-12-11T00:58:19.865Z,97192.91
2022-12-11T01:00:50.158Z,97194.78
2022-12-11T01:03:18.438Z,97201.56
2022-12-11T01:05:56.364Z,97209.13
2022-12-11T01:08:24.800Z,97194.69
2022-12-11T01:11:01.753Z,97188.00
2022-12-11T01:13:30.032Z,97194.63
2022-12-11T01:15:58.036Z,97199.88
2022-12-11T01:18:26.577Z,97200.84
2022-12-11T01:20:55.097Z,97200.06
2022-12-11T01:23:23.061Z,97204.47
2022-12-11T01:25:51.058Z,97199.47
2022-12-11T01:28:19.380Z,97201.19
2022-12-11T01:30:47.340Z,97202.13
2022-12-11T01:33:15.368Z,97222.56
2022-12-11T01:35:43.684Z,97207.38
2022-12-11T01:38:11.699Z,97218.56
2022-12-11T01:40:52.286Z,97216.75
2022-12-11T01:43:20.576Z,97210.72
2022-12-11T01:45:49.213Z,97210.19
2022-12-11T01:48:29.345Z,97197.38
2022-12-11T01:51:03.688Z,97212.22
2022-12-11T01:53:37.774Z,97214.53
2022-12-11T01:56:07.141Z,97223.91
2022-12-11T01:58:40.823Z,97216.34
2022-12-11T02:01:12.266Z,97211.19
2022-12-11T02:03:40.765Z,97218.00
2022-12-11T02:06:34.714Z,97216.25
2022-12-11T02:09:04.043Z,97213.78
2022-12-11T02:11:41.461Z,97185.66
2022-12-11T02:14:32.529Z,97190.69
2022-12-11T02:17:15.168Z,97201.78
2022-12-11T02:20:09.246Z,97209.38
2022-12-11T02:23:22.743Z,97201.06
2022-12-11T02:25:53.564Z,97196.53
2022-12-11T02:28:35.656Z,97191.66
2022-12-11T02:31:12.960Z,97199.13
2022-12-11T02:33:49.703Z,97201.97
2022-12-11T02:36:19.632Z,97193.50
2022-12-11T02:38:50.874Z,97189.25
2022-12-11T02:41:20.081Z,97161.75
2022-12-11T02:43:49.914Z,97182.31
2022-12-11T02:46:19.902Z,97189.25
2022-12-11T02:48:50.085Z,97175.72
2022-12-11T02:51:22.725Z,97178.09
2022-12-11T02:53:54.085Z,97175.56
2022-12-11T02:56:31.439Z,97170.44
2022-12-11T02:59:03.630Z,97163.53
2022-12-11T03:01:31.754Z,97165.37
2022-12-11T03:04:00.227Z,97161.97
2022-12-11T03:06:33.517Z,97176.34
2022-12-11T03:09:01.805Z,97149.91
2022-12-11T03:11:29.791Z,97158.47
2022-12-11T03:13:58.042Z,97164.56
2022-12-11T03:16:37.969Z,97156.75
2022-12-11T03:19:36.568Z,97132.75
2022-12-11T03:22:07.556Z,97170.41
2022-12-11T03:24:43.590Z,97164.44
2022-12-11T03:27:33.842Z,97172.06
2022-12-11T03:30:12.235Z,97161.03
2022-12-11T03:32:53.941Z,97156.78
2022-12-11T03:35:33.214Z,97125.22
2022-12-11T03:38:06.019Z,97151.66
2022-12-11T03:40:36.068Z,97136.16
2022-12-11T03:43:05.386Z,97124.34
2022-12-11T03:45:34.050Z,97136.25
2022-12-11T03:48:03.197Z,97141.50
2022-12-11T03:50:32.491Z,97159.44
2022-12-11T03:53:01.313Z,97167.94
2022-12-11T03:55:30.102Z,97171.31
2022-12-11T03:57:58.666Z,97166.22
2022-12-11T04:00:26.716Z,97171.25
2022-12-11T04:03:14.092Z,97181.59
2022-12-11T04:05:44.028Z,97172.19
2022-12-11T04:08:12.703Z,97180.94
2022-12-11T04:10:41.295Z,97190.13
2022-12-11T04:13:10.450Z,97182.50
2022-12-11T04:15:39.603Z,97172.25
2022-12-11T04:18:27.049Z,97177.41
2022-12-11T04:21:15.207Z,97200.34
2022-12-11T04:24:01.756Z,97194.22
2022-12-11T04:26:30.061Z,97199.53
2022-12-11T04:28:57.870Z,97194.50
2022-12-11T04:31:26.071Z,97204.66
2022-12-11T04:33:54.367Z,97220.94
2022-12-11T04:36:22.321Z,97216.56
2022-12-11T04:38:50.468Z,97215.72
2022-12-11T04:41:18.805Z,97211.44
2022-12-11T04:43:46.802Z,97224.97
2022-12-11T04:46:17.764Z,97233.44
2022-12-11T04:48:46.824Z,97244.66
2022-12-11T04:51:15.237Z,97254.97
2022-12-11T04:53:43.513Z,97255.75
2022-12-11T04:56:14.081Z,97256.72
2022-12-11T04:58:43.251Z,97260.13
2022-12-11T05:01:20.460Z,97274.78
2022-12-11T05:03:48.558Z,97273.81
2022-12-11T05:06:17.175Z,97286.59
2022-12-11T05:08:45.635Z,97290.09
2022-12-11T05:11:15.324Z,97300.41
2022-12-11T05:13:44.275Z,97293.31
2022-12-11T05:16:15.041Z,97300.88
2022-12-11T05:18:43.727Z,97289.13
2022-12-11T05:21:13.121Z,97307.94
2022-12-11T05:23:41.735Z,97294.34
2022-12-11T05:26:18.937Z,97291.88
2022-12-11T05:28:47.710Z,97297.69
2022-12-11T05:31:18.740Z,97291.78
2022-12-11T05:33:49.182Z,97289.06
2022-12-11T05:36:27.985Z,97296.78
2022-12-11T05:38:55.890Z,97303.66
2022-12-11T05:41:26.177Z,97291.75
2022-12-11T05:43:54.266Z,97307.91
2022-12-11T05:46:26.854Z,97299.34
2022-12-11T05:48:57.271Z,97280.63
2022-12-11T05:51:25.467Z,97297.00
2022-12-11T05:53:54.643Z,97290.97
2022-12-11T05:56:26.478Z,97299.50
2022-12-11T05:58:55.113Z,97286.69
2022-12-11T06:01:38.138Z,97294.38
2022-12-11T06:04:07.341Z,97307.16
2022-12-11T06:06:36.152Z,97321.72
2022-12-11T06:09:05.286Z,97320.13
2022-12-11T06:11:34.994Z,97340.44
2022-12-11T06:14:03.803Z,97337.06
2022-12-11T06:16:32.528Z,97345.56
2022-12-11T06:19:00.988Z,97352.44
2022-12-11T06:21:31.066Z,97344.03
2022-12-11T06:24:01.758Z,97339.69
2022-12-11T06:26:30.699Z,97352.44
2022-12-11T06:28:58.918Z,97356.75
2022-12-11T06:31:26.896Z,97346.53
2022-12-11T06:33:55.423Z,97372.09
2022-12-11T06:36:24.449Z,97382.44
2022-12-11T06:38:53.000Z,97374.78
2022-12-11T06:41:21.461Z,97385.88
2022-12-11T06:43:49.434Z,97377.25
2022-12-11T06:46:19.900Z,97382.38
2022-12-11T06:48:49.461Z,97390.12
2022-12-11T06:51:22.647Z,97375.56
2022-12-11T06:53:53.130Z,97391.00
2022-12-11T06:56:21.603Z,97395.28
2022-12-11T06:58:49.933Z,97390.06
2022-12-11T07:01:19.585Z,97384.16
2022-12-11T07:03:48.683Z,97391.09
2022-12-11T07:06:16.873Z,97384.16
2022-12-11T07:08:45.778Z,97392.50
2022-12-11T07:11:15.525Z,97381.53
2022-12-11T07:13:43.687Z,97390.91
2022-12-11T07:16:13.614Z,97388.25
2022-12-11T07:18:43.840Z,97387.50
2022-12-11T07:21:13.222Z,97376.41
2022-12-11T07:23:41.756Z,97387.47
2022-12-11T07:26:12.908Z,97394.28
2022-12-11T07:28:41.858Z,97389.03
2022-12-11T07:31:15.054Z,97400.22
2022-12-11T07:33:44.129Z,97394.28
2022-12-11T07:36:13.900Z,97401.09
2022-12-11T07:38:42.186Z,97409.53
2022-12-11T07:41:12.791Z,97407.88
2022-12-11T07:43:41.751Z,97406.06
2022-12-11T07:46:16.111Z,97404.31
2022-12-11T07:48:46.198Z,97417.28
2022-12-11T07:51:28.118Z,97433.53
2022-12-11T07:54:16.796Z,97412.84
2022-12-11T07:56:49.864Z,97416.47
2022-12-11T07:59:21.429Z,97435.31
2022-12-11T08:01:49.399Z,97414.66
2022-12-11T08:04:17.731Z,97416.41
2022-12-11T08:06:45.722Z,97443.69
2022-12-11T08:09:20.959Z,97449.59
2022-12-11T08:11:50.989Z,97444.53
2022-12-11T08:14:19.781Z,97465.84
2022-12-11T08:16:48.403Z,97487.19
2022-12-11T08:19:16.960Z,97480.34
2022-12-11T08:21:45.263Z,97472.53
2022-12-11T08:24:13.287Z,97496.62
2022-12-11T08:26:41.647Z,97507.72
2022-12-11T08:29:11.463Z,97506.91
2022-12-11T08:31:41.259Z,97518.75
2022-12-11T08:34:09.693Z,97517.09
2022-12-11T08:36:37.862Z,97526.59
2022-12-11T08:39:05.923Z,97531.66
2022-12-11T08:41:37.427Z,97547.00
2022-12-11T08:44:06.160Z,97548.78
2022-12-11T08:46:35.833Z,97548.72
2022-12-11T08:49:04.228Z,97546.22
2022-12-11T08:51:33.006Z,97540.19
2022-12-11T08:54:01.500Z,97546.22
2022-12-11T08:56:30.032Z,97562.34
2022-12-11T08:59:00.954Z,97555.66
2022-12-11T09:01:29.712Z,97566.75
2022-12-11T09:03:58.342Z,97564.94
2022-12-11T09:06:28.568Z,97568.34
2022-12-11T09:09:00.024Z,97575.22
2022-12-11T09:11:30.725Z,97570.88
2022-12-11T09:14:05.220Z,97558.91
2022-12-11T09:16:38.059Z,97564.06
2022-12-11T09:19:08.627Z,97563.22
2022-12-11T09:21:36.657Z,97568.38
2022-12-11T09:24:05.006Z,97566.62
2022-12-11T09:26:33.371Z,97582.97
2022-12-11T09:29:04.065Z,97587.22
2022-12-11T09:31:34.496Z,97591.53
2022-12-11T09:34:07.877Z,97596.72
2022-12-11T09:36:36.345Z,97593.25
2022-12-11T09:39:06.624Z,97583.69
2022-12-11T09:42:12.418Z,97588.91
2022-12-11T09:44:49.786Z,97584.66
2022-12-11T09:47:26.201Z,97585.53
2022-12-11T09:50:15.331Z,97592.34
2022-12-11T09:53:20.764Z,97571.69
2022-12-11T09:55:54.749Z,97548.72
2022-12-11T09:59:00.329Z,97560.69
2022-12-11T10:01:58.753Z,97558.09
2022-12-11T10:04:33.225Z,97532.41
2022-12-11T10:07:17.191Z,97555.50
2022-12-11T10:10:00.887Z,97567.56
2022-12-11T10:12:55.828Z,97551.34
2022-12-11T10:15:24.177Z,97573.44
2022-12-11T10:17:56.652Z,97572.72
2022-12-11T10:20:36.720Z,97553.09
2022-12-11T10:23:07.976Z,97568.56
2022-12-11T10:25:38.303Z,97575.34
2022-12-11T10:28:18.419Z,97576.91
2022-12-11T10:31:03.219Z,97580.34
2022-12-11T10:33:57.459Z,97588.00
2022-12-11T10:36:32.190Z,97588.12
2022-12-11T10:39:00.797Z,97591.53
2022-12-11T10:41:39.312Z,97594.03
2022-12-11T10:44:26.972Z,97606.03
2022-12-11T10:47:05.372Z,97604.34
2022-12-11T10:49:35.888Z,97597.59
2022-12-11T10:52:21.397Z,97597.59
2022-12-11T10:54:58.935Z,97597.53
2022-12-11T10:57:32.986Z,97606.19
2022-12-11T11:00:01.295Z,97603.56
2022-12-11T11:02:33.274Z,97589.03
2022-12-11T11:05:12.758Z,97601.00
2022-12-11T11:07:41.767Z,97606.03
2022-12-11T11:10:13.778Z,97592.37
2022-12-11T11:12:49.370Z,97596.66
2022-12-11T11:15:25.645Z,97593.37
2022-12-11T11:17:59.035Z,97583.81
2022-12-11T11:20:30.305Z,97573.50
2022-12-11T11:23:01.067Z,97583.81
2022-12-11T11:25:33.542Z,97582.09
2022-12-11T11:28:04.694Z,97588.94
2022-12-11T11:30:36.857Z,97586.31
2022-12-11T11:33:17.388Z,97586.31
2022-12-11T11:36:02.632Z,97606.03
2022-12-11T11:38:59.949Z,97613.63
2022-12-11T11:41:51.436Z,97605.22
2022-12-11T11:44:35.211Z,97600.00
2022-12-11T11:47:17.919Z,97617.97
2022-12-11T11:50:09.991Z,97604.22
2022-12-11T11:52:45.698Z,97611.28
2022-12-11T11:55:42.565Z,97601.78
2022-12-11T11:58:23.137Z,97605.13
2022-12-11T12:00:54.923Z,97611.94
2022-12-11T12:03:24.768Z,97607.63
2022-12-11T12:06:26.757Z,97616.31
2022-12-11T12:09:13.884Z,97631.75
2022-12-11T12:11:56.593Z,97635.06
2022-12-11T12:14:52.639Z,97636.72
2022-12-11T12:17:50.574Z,97643.63
2022-12-11T12:20:42.062Z,97638.56
2022-12-11T12:23:49.783Z,97645.25
2022-12-11T12:26:34.599Z,97646.09
2022-12-11T12:29:21.153Z,97652.13
2022-12-11T12:32:08.054Z,97645.09
2022-12-11T12:34:49.085Z,97633.94
2022-12-11T12:37:44.068Z,97631.66
2022-12-11T12:40:25.114Z,97624.69
2022-12-11T12:42:55.827Z,97625.53
2022-12-11T12:45:43.289Z,97642.69
2022-12-11T12:48:11.809Z,97648.59
2022-12-11T12:50:45.452Z,97660.78
2022-12-11T12:53:28.627Z,97669.22
2022-12-11T12:55:57.074Z,97663.06
2022-12-11T12:58:28.625Z,97665.53
2022-12-11T13:01:15.108Z,97669.00
2022-12-11T13:04:47.421Z,97682.88
2022-12-11T13:07:27.450Z,97694.88
2022-12-11T13:10:07.139Z,97700.03
2022-12-11T13:12:46.556Z,97710.22
2022-12-11T13:15:26.944Z,97721.31
2022-12-11T13:17:55.196Z,97707.66
2022-12-11T13:20:27.871Z,97731.72
2022-12-11T13:23:10.430Z,97734.22
2022-12-11T13:25:57.051Z,97735.91
2022-12-11T13:28:28.450Z,97729.78
2022-12-11T13:31:27.103Z,97729.91
2022-12-11T13:33:56.619Z,97720.56
2022-12-11T13:36:29.853Z,97729.06
2022-12-11T13:39:05.396Z,97739.44
2022-12-11T13:41:35.943Z,97734.25
2022-12-11T13:44:05.170Z,97731.63
2022-12-11T13:46:36.309Z,97742.97
2022-12-11T13:49:07.213Z,97748.88
2022-12-11T13:51:37.259Z,97762.41
2022-12-11T13:54:17.701Z,97758.19
2022-12-11T13:57:09.209Z,97759.84
2022-12-11T13:59:41.594Z,97757.47
2022-12-11T14:02:36.162Z,97767.63
2022-12-11T14:05:07.893Z,97775.44
2022-12-11T14:07:39.504Z,97773.63
2022-12-11T14:10:17.521Z,97786.47
2022-12-11T14:13:07.108Z,97784.84
2022-12-11T14:15:36.779Z,97791.72
2022-12-11T14:18:05.599Z,97812.22
2022-12-11T14:20:34.532Z,97801.97
2022-12-11T14:23:16.768Z,97807.94
2022-12-11T14:25:53.627Z,97805.34
2022-12-11T14:28:23.543Z,97815.66
2022-12-11T14:30:52.829Z,97816.41
2022-12-11T14:33:23.703Z,97814.75
2022-12-11T14:35:53.204Z,97815.66
2022-12-11T14:38:24.786Z,97819.06
2022-12-11T14:40:58.802Z,97814.78
2022-12-11T14:43:31.639Z,97826.78
2022-12-11T14:46:04.553Z,97827.66
2022-12-11T14:48:42.865Z,97834.47
2022-12-11T14:51:15.282Z,97831.91
2022-12-11T14:53:45.888Z,97838.78
2022-12-11T14:56:26.513Z,97843.03
2022-12-11T14:59:01.434Z,97849.03
2022-12-11T15:01:32.690Z,97849.91
2022-12-11T15:04:18.289Z,97853.31
2022-12-11T15:06:48.758Z,97832.75
2022-12-11T15:09:36.424Z,97846.47
2022-12-11T15:12:13.892Z,97861.88
2022-12-11T15:14:49.360Z,97855.03
2022-12-11T15:17:18.991Z,97854.19
2022-12-11T15:19:52.408Z,97869.56
2022-12-11T15:22:26.362Z,97867.87
2022-12-11T15:24:54.843Z,97864.44
2022-12-11T15:27:34.532Z,97867.87
2022-12-11T15:30:18.333Z,97869.56
2022-12-11T15:32:47.075Z,97869.53
2022-12-11T15:35:26.726Z,97867.87
2022-12-11T15:37:58.938Z,97867.00
2022-12-11T15:40:27.851Z,97859.28
2022-12-11T15:42:56.992Z,97864.47
2022-12-11T15:45:28.753Z,97876.38
2022-12-11T15:48:00.479Z,97875.56
2022-12-11T15:50:31.279Z,97886.69
2022-12-11T15:53:00.917Z,97874.69
2022-12-11T15:55:35.286Z,97878.12
2022-12-11T15:58:06.037Z,97884.94
2022-12-11T16:00:37.715Z,97884.94
2022-12-11T16:03:06.066Z,97885.78
2022-12-11T16:05:34.200Z,97892.66
2022-12-11T16:08:02.244Z,97884.13
2022-12-11T16:10:30.686Z,97896.06
2022-12-11T16:12:59.920Z,97903.72
2022-12-11T16:15:27.890Z,97907.16
2022-12-11T16:18:04.003Z,97904.59
2022-12-11T16:20:32.307Z,97894.38
2022-12-11T16:23:00.788Z,97901.94
2022-12-11T16:25:28.969Z,97904.56
2022-12-11T16:28:00.850Z,97900.38
2022-12-11T16:30:31.241Z,97891.81
2022-12-11T16:32:59.420Z,97899.50
2022-12-11T16:35:29.226Z,97909.69
2022-12-11T16:37:57.623Z,97912.31
2022-12-11T16:40:25.732Z,97915.66
2022-12-11T16:42:54.442Z,97914.00
2022-12-11T16:45:26.488Z,97918.25
2022-12-11T16:47:55.222Z,97912.25
2022-12-11T16:50:24.250Z,97922.41
2022-12-11T16:52:52.199Z,97917.44
2022-12-11T16:55:22.479Z,97908.88
2022-12-11T16:57:51.206Z,97909.66
2022-12-11T17:00:19.993Z,97917.41
2022-12-11T17:02:48.288Z,97912.25
2022-12-11T17:05:16.737Z,97913.13
2022-12-11T17:07:47.761Z,97921.69
2022-12-11T17:10:15.750Z,97915.66
2022-12-11T17:12:44.180Z,97910.44
2022-12-11T17:15:12.572Z,97913.88
2022-12-11T17:17:43.067Z,97913.84
2022-12-11T17:20:11.521Z,97913.88
2022-12-11T17:22:39.555Z,97910.53
2022-12-11T17:25:08.128Z,97915.69
2022-12-11T17:27:37.975Z,97911.38
2022-12-11T17:30:06.574Z,97919.00
2022-12-11T17:32:34.659Z,97918.13
2022-12-11T17:35:03.044Z,97911.34
2022-12-11T17:37:31.267Z,97908.81
2022-12-11T17:39:59.260Z,97896.78
2022-12-11T17:42:27.736Z,97892.59
2022-12-11T17:44:55.923Z,97889.94
2022-12-11T17:47:23.947Z,97896.81
2022-12-11T17:49:52.447Z,97904.50
2022-12-11T17:52:20.495Z,97916.44
2022-12-11T17:54:48.565Z,97905.37
2022-12-11T17:57:17.314Z,97916.41
2022-12-11T17:59:45.556Z,97917.12
2022-12-11T18:02:13.736Z,97913.69
2022-12-11T18:04:42.561Z,97909.31
2022-12-11T18:07:10.710Z,97928.19
2022-12-11T18:09:42.547Z,97925.78
2022-12-11T18:12:11.125Z,97942.03
2022-12-11T18:14:39.550Z,97941.22
2022-12-11T18:17:07.742Z,97936.06
2022-12-11T18:19:37.399Z,97935.19
2022-12-11T18:22:08.362Z,97937.81
2022-12-11T18:24:36.986Z,97940.34
2022-12-11T18:27:05.136Z,97948.03
2022-12-11T18:29:33.265Z,97950.66
2022-12-11T18:32:01.948Z,97946.41
2022-12-11T18:34:30.252Z,97942.06
2022-12-11T18:36:58.454Z,97942.91
2022-12-11T18:39:26.963Z,97946.41
2022-12-11T18:42:24.248Z,97952.28
2022-12-11T18:44:45.376Z,97946.28
2022-12-11T18:47:13.276Z,97956.38
2022-12-11T18:49:44.364Z,97953.00
2022-12-11T18:52:13.213Z,97963.41
2022-12-11T18:54:41.653Z,97955.72
2022-12-11T18:57:10.010Z,97971.75
2022-12-11T18:59:39.734Z,97965.03
2022-12-11T19:02:08.087Z,97982.13
2022-12-11T19:04:37.829Z,97977.03
2022-12-11T19:07:06.282Z,97982.19
2022-12-11T19:09:38.044Z,97978.78
2022-12-11T19:12:07.337Z,97980.44
2022-12-11T19:14:35.445Z,97984.78
2022-12-11T19:17:03.738Z,97986.38
2022-12-11T19:19:32.002Z,97989.03
2022-12-11T19:22:00.514Z,97987.28
2022-12-11T19:24:28.661Z,98002.78
2022-12-11T19:26:57.704Z,98002.63
2022-12-11T19:29:28.298Z,97997.66
2022-12-11T19:31:56.944Z,97993.34
2022-12-11T19:34:25.624Z,98003.69
2022-12-11T19:36:54.075Z,98003.59
2022-12-11T19:39:22.791Z,98015.47
2022-12-11T19:41:51.520Z,98001.84
2022-12-11T19:44:19.594Z,98000.16
2022-12-11T19:46:48.234Z,97998.50
2022-12-11T19:49:16.466Z,98000.09
2022-12-11T19:51:45.199Z,98002.00
2022-12-11T19:54:16.026Z,97998.41
2022-12-11T19:56:44.760Z,98005.16
2022-12-11T19:59:16.868Z,98004.37
2022-12-11T20:01:48.241Z,98003.53
2022-12-11T20:04:17.523Z,98007.78
2022-12-11T20:06:46.638Z,98014.75
2022-12-11T20:09:15.716Z,98007.78
2022-12-11T20:11:45.156Z,98008.53
2022-12-11T20:14:22.443Z,97998.53
2022-12-11T20:19:42.024Z,98017.16
2022-12-11T20:22:10.704Z,98021.38
2022-12-11T20:24:38.707Z,98020.69
2022-12-11T20:27:06.694Z,98030.06
2022-12-11T20:29:35.060Z,98019.87
2022-12-11T20:32:03.456Z,98027.41
2022-12-11T20:34:31.575Z,98029.00
2022-12-11T20:37:00.646Z,98024.72
2022-12-11T20:39:29.357Z,98023.88
2022-12-11T20:41:57.439Z,98025.59
2022-12-11T20:44:26.129Z,98028.28
2022-12-11T20:46:54.907Z,98022.91
2022-12-11T20:49:23.536Z,98022.97
2022-12-11T20:51:52.297Z,98026.06
2022-12-11T20:54:20.464Z,98030.31
2022-12-11T20:56:48.510Z,98023.59
2022-12-11T20:59:17.864Z,98032.25
2022-12-11T21:01:46.068Z,98036.50
2022-12-11T21:04:14.188Z,98044.28
2022-12-11T21:06:42.619Z,98051.94
2022-12-11T21:09:15.525Z,98051.06
2022-12-11T21:11:44.457Z,98054.50
2022-12-11T21:14:13.815Z,98046.53
2022-12-11T21:16:42.187Z,98047.03
2022-12-11T21:19:17.093Z,98049.84
2022-12-11T21:21:46.141Z,98050.84
2022-12-11T21:24:20.279Z,98043.22
2022-12-11T21:26:48.853Z,98037.31
2022-12-11T21:29:17.747Z,98048.53
2022-12-11T21:31:45.974Z,98052.72
2022-12-11T21:34:14.382Z,98056.75
2022-12-11T21:36:42.755Z,98062.78
2022-12-11T21:39:12.358Z,98063.50
2022-12-11T21:41:41.166Z,98066.28
2022-12-11T21:46:59.319Z,98077.06
2022-12-11T21:49:27.686Z,98074.59
2022-12-11T21:51:55.821Z,98074.47
2022-12-11T21:54:24.089Z,98074.00
2022-12-11T21:56:54.369Z,98068.47
2022-12-11T21:59:22.398Z,98073.84
2022-12-11T22:01:50.354Z,98077.00
2022-12-11T22:04:19.854Z,98079.44
2022-12-11T22:06:47.720Z,98081.94
2022-12-11T22:09:16.461Z,98080.25
2022-12-11T22:11:46.036Z,98069.34
2022-12-11T22:14:15.432Z,98071.72
2022-12-11T22:16:44.148Z,98077.78
2022-12-11T22:19:12.707Z,98072.25
2022-12-11T22:21:41.040Z,98070.28
2022-12-11T22:24:09.187Z,98078.34
2022-12-11T22:26:37.452Z,98079.66
2022-12-11T22:29:05.446Z,98076.50
2022-12-11T22:31:33.462Z,98067.03
2022-12-11T22:34:01.745Z,98068.72
2022-12-11T22:36:29.668Z,98081.19
2022-12-11T22:38:57.470Z,98075.94
2022-12-11T22:41:28.356Z,98081.37
2022-12-11T22:43:57.350Z,98092.19
2022-12-11T22:46:28.415Z,98096.03
2022-12-11T22:48:56.306Z,98089.25
2022-12-11T22:51:24.119Z,98080.09
2022-12-11T22:53:52.360Z,98083.88
2022-12-11T22:56:20.358Z,98090.34
2022-12-11T22:58:48.201Z,98096.13
2022-12-11T23:01:23.919Z,98094.50
2022-12-11T23:03:52.312Z,98095.50
2022-12-11T23:06:23.002Z,98093.03
2022-12-11T23:08:51.905Z,98088.09
2022-12-11T23:11:27.811Z,98085.28
2022-12-11T23:13:55.701Z,98087.91
2022-12-11T23:16:26.082Z,98086.16
2022-12-11T23:18:55.033Z,98084.47
2022-12-11T23:21:24.093Z,98079.25
2022-12-11T23:23:52.287Z,98088.78
2022-12-11T23:26:21.150Z,98103.66
2022-12-11T23:28:50.133Z,98106.94
2022-12-11T23:31:18.242Z,98092.50
2022-12-11T23:33:46.165Z,98096.50
2022-12-11T23:36:14.667Z,98092.47
2022-12-11T23:38:42.578Z,98092.59
2022-12-11T23:41:12.696Z,98085.53
2022-12-11T23:43:41.906Z,98090.00
2022-12-11T23:46:18.236Z,98082.13
2022-12-11T23:48:46.600Z,98085.63
2022-12-11T23:51:16.486Z,98088.13
2022-12-11T23:53:44.999Z,98083.91
2022-12-11T23:56:28.576Z,98098.19
2022-12-11T23:58:56.762Z,98102.75
